Time;durP1;ratioP1;P1;durP2;ratioP2;P2;SDS_P1;SDS_P2;PMS_P1;PMS_P2;Temp;Humidity;BMP_temperature;BMP_pressure;BME280_temperature;BME280_humidity;BME280_pressure;Samples;Min_cycle;Max_cycle;Signal;HPM_P1;HPM_P2
2023/09/26 00:00:09;;;;;;;4.20;3.80;;;11.70;99.90;;;;;;5103484;27;21638;-74
2023/09/26 00:02:35;;;;;;;4.27;3.87;;;11.70;99.90;;;;;;5084540;28;21217;-74
2023/09/26 00:05:05;;;;;;;3.87;3.47;;;11.70;99.90;;;;;;5098864;27;20672;-73
2023/09/26 00:07:31;;;;;;;4.87;4.17;;;11.70;99.90;;;;;;5094768;27;20251;-74
2023/09/26 00:10:00;;;;;;;4.17;3.77;;;11.70;99.90;;;;;;5097473;27;20627;-73
2023/09/26 00:12:28;;;;;;;4.30;4.00;;;11.70;99.90;;;;;;5096538;27;20654;-73
2023/09/26 00:14:55;;;;;;;7.70;4.70;;;11.70;99.90;;;;;;5093421;27;20634;-73
2023/09/26 00:17:22;;;;;;;4.53;4.00;;;11.60;99.90;;;;;;5100723;27;20620;-73
2023/09/26 00:19:49;;;;;;;5.23;3.80;;;11.70;99.90;;;;;;5089002;27;20957;-74
2023/09/26 00:22:16;;;;;;;4.40;3.47;;;11.60;99.90;;;;;;5084489;28;20631;-74
2023/09/26 00:24:43;;;;;;;4.70;4.30;;;11.70;99.90;;;;;;5101721;27;20660;-73
2023/09/26 00:27:09;;;;;;;3.90;3.60;;;11.70;99.90;;;;;;5100606;27;21049;-74
2023/09/26 00:29:37;;;;;;;4.70;4.30;;;11.70;99.90;;;;;;5095294;27;20620;-74
2023/09/26 00:32:04;;;;;;;4.27;3.47;;;11.80;99.90;;;;;;5096931;27;20628;-74
2023/09/26 00:34:31;;;;;;;4.10;3.70;;;11.80;99.90;;;;;;5086696;27;20628;-74
2023/09/26 00:36:58;;;;;;;5.67;3.87;;;11.70;99.90;;;;;;5100988;27;20623;-73
2023/09/26 00:39:25;;;;;;;5.03;4.47;;;11.70;99.90;;;;;;5100994;27;20620;-74
2023/09/26 00:41:52;;;;;;;4.87;4.33;;;11.70;99.90;;;;;;5105826;27;20631;-74
2023/09/26 00:44:19;;;;;;;4.97;4.33;;;11.70;99.90;;;;;;5094720;27;21254;-74
2023/09/26 00:46:47;;;;;;;4.77;4.33;;;11.60;99.90;;;;;;5088845;28;21351;-73
2023/09/26 00:49:14;;;;;;;5.33;4.70;;;11.60;99.90;;;;;;5101498;27;20626;-74
2023/09/26 00:51:41;;;;;;;5.67;5.17;;;11.60;99.90;;;;;;5098251;27;20624;-73
2023/09/26 00:54:10;;;;;;;4.57;4.07;;;11.50;99.90;;;;;;5098261;27;20658;-74
2023/09/26 00:56:38;;;;;;;4.53;4.23;;;11.30;99.90;;;;;;5080477;28;21176;-73
2023/09/26 00:59:06;;;;;;;4.40;4.00;;;11.30;99.90;;;;;;5094191;27;20640;-73
2023/09/26 01:01:33;;;;;;;5.17;4.70;;;11.20;99.90;;;;;;5089507;27;20639;-74
2023/09/26 01:04:02;;;;;;;6.10;5.50;;;11.20;99.90;;;;;;5096853;27;21020;-73
2023/09/26 01:06:30;;;;;;;4.43;4.03;;;11.20;99.90;;;;;;5095182;27;21403;-73
2023/09/26 01:08:57;;;;;;;4.00;3.60;;;11.20;99.90;;;;;;5105392;27;20628;-73
2023/09/26 01:11:24;;;;;;;4.03;3.70;;;11.20;99.90;;;;;;5095311;27;21047;-73
2023/09/26 01:13:51;;;;;;;10.23;4.63;;;11.30;99.90;;;;;;5100986;27;20624;-73
2023/09/26 01:16:20;;;;;;;5.60;3.87;;;11.30;99.90;;;;;;5099829;27;20655;-74
2023/09/26 01:18:48;;;;;;;6.90;4.53;;;11.20;99.90;;;;;;5099088;27;21262;-73
2023/09/26 01:21:17;;;;;;;5.27;4.50;;;11.20;99.90;;;;;;5105471;27;20662;-73
2023/09/26 01:23:50;;;;;;;5.37;4.87;;;11.20;99.90;;;;;;5099883;27;20638;-74
2023/09/26 01:26:19;;;;;;;5.03;4.13;;;11.10;99.90;;;;;;5103160;27;20991;-73
2023/09/26 01:28:47;;;;;;;5.70;5.10;;;11.20;99.90;;;;;;5098917;27;21224;-73
2023/09/26 01:31:14;;;;;;;5.10;4.60;;;11.20;99.90;;;;;;5103391;27;20635;-74
2023/09/26 01:33:42;;;;;;;5.80;5.03;;;11.20;99.90;;;;;;5091536;27;20633;-73
2023/09/26 01:36:09;;;;;;;5.10;4.57;;;11.10;99.90;;;;;;5100528;27;20720;-74
2023/09/26 01:38:37;;;;;;;4.43;4.07;;;11.10;99.90;;;;;;5101206;27;20643;-73
2023/09/26 01:41:04;;;;;;;6.97;5.07;;;11.10;99.90;;;;;;5098702;27;20627;-73
2023/09/26 01:43:34;;;;;;;4.73;4.33;;;11.10;99.90;;;;;;5102077;27;20770;-73
2023/09/26 01:46:03;;;;;;;5.30;4.80;;;11.10;99.90;;;;;;5094319;27;20709;-74
2023/09/26 01:48:31;;;;;;;5.90;5.03;;;11.10;99.90;;;;;;5087465;27;21200;-73
2023/09/26 01:50:58;;;;;;;6.00;5.40;;;11.00;99.90;;;;;;5102473;27;20624;-74
2023/09/26 01:53:25;;;;;;;5.20;4.47;;;11.00;99.90;;;;;;5100330;27;21916;-73
2023/09/26 01:55:51;;;;;;;6.77;5.47;;;11.00;99.90;;;;;;5104209;27;20651;-73
2023/09/26 01:58:18;;;;;;;5.57;4.50;;;11.00;99.90;;;;;;5092356;27;20621;-73
2023/09/26 02:00:46;;;;;;;4.93;4.20;;;11.00;99.90;;;;;;5088472;28;21857;-73
2023/09/26 02:03:13;;;;;;;6.43;4.90;;;11.10;99.90;;;;;;5099759;27;20644;-74
2023/09/26 02:05:40;;;;;;;5.30;4.63;;;11.10;99.90;;;;;;5098602;27;21351;-73
2023/09/26 02:08:07;;;;;;;6.40;5.17;;;11.10;99.90;;;;;;5104599;27;20701;-73
2023/09/26 02:10:34;;;;;;;6.53;5.40;;;11.10;99.90;;;;;;5105174;27;20623;-73
2023/09/26 02:13:02;;;;;;;7.67;5.10;;;11.10;99.90;;;;;;5108330;27;20650;-73
2023/09/26 02:15:29;;;;;;;5.73;5.20;;;11.20;99.90;;;;;;5094790;27;20618;-74
2023/09/26 02:17:58;;;;;;;5.27;4.77;;;11.20;99.90;;;;;;5096666;27;20627;-74
2023/09/26 02:20:27;;;;;;;5.33;4.83;;;11.10;99.90;;;;;;5095598;27;21326;-73
2023/09/26 02:22:55;;;;;;;5.20;3.93;;;11.10;99.90;;;;;;5095242;27;21193;-73
2023/09/26 02:25:23;;;;;;;5.57;4.97;;;11.10;99.90;;;;;;5082754;28;20798;-73
2023/09/26 02:27:51;;;;;;;6.13;5.40;;;11.10;99.90;;;;;;5094153;27;20648;-74
2023/09/26 02:30:20;;;;;;;4.50;3.87;;;11.00;99.90;;;;;;5098730;27;20628;-74
2023/09/26 02:32:48;;;;;;;4.60;4.17;;;11.00;99.90;;;;;;5102900;27;20670;-74
2023/09/26 02:35:19;;;;;;;5.47;4.93;;;11.00;99.90;;;;;;5092882;27;20636;-74
2023/09/26 02:37:48;;;;;;;5.23;4.33;;;11.10;99.90;;;;;;5087297;28;20631;-73
2023/09/26 02:40:15;;;;;;;4.47;4.07;;;10.90;99.90;;;;;;5099729;27;20647;-74
2023/09/26 02:42:44;;;;;;;5.90;4.30;;;10.80;99.90;;;;;;5101014;27;20770;-73
2023/09/26 02:45:12;;;;;;;4.73;4.00;;;10.80;99.90;;;;;;5103741;27;20670;-73
2023/09/26 02:47:40;;;;;;;4.47;4.00;;;10.90;99.90;;;;;;5113639;27;20607;-73
2023/09/26 02:50:09;;;;;;;5.10;4.20;;;10.90;99.90;;;;;;5098017;27;20620;-72
2023/09/26 02:52:37;;;;;;;4.47;3.93;;;10.90;99.90;;;;;;5084528;28;20715;-73
2023/09/26 02:55:07;;;;;;;4.53;4.13;;;10.90;99.90;;;;;;5097504;27;20619;-73
2023/09/26 02:57:35;;;;;;;4.90;4.50;;;10.80;99.90;;;;;;5103961;27;20638;-72
2023/09/26 03:00:13;;;;;;;5.23;4.73;;;10.90;99.90;;;;;;5095196;27;20632;-73
2023/09/26 03:02:41;;;;;;;4.57;4.17;;;10.80;99.90;;;;;;5076155;28;21179;-72
2023/09/26 03:05:09;;;;;;;4.50;4.20;;;10.80;99.90;;;;;;5098878;27;20640;-73
2023/09/26 03:07:37;;;;;;;4.70;4.07;;;10.80;99.90;;;;;;5096456;27;21216;-73
2023/09/26 03:10:05;;;;;;;4.23;3.83;;;10.80;99.90;;;;;;5094434;27;20630;-72
2023/09/26 03:12:32;;;;;;;5.37;4.50;;;10.70;99.90;;;;;;5091121;27;20738;-72
2023/09/26 03:14:58;;;;;;;6.10;5.50;;;10.70;99.90;;;;;;5090230;27;20620;-73
2023/09/26 03:17:25;;;;;;;4.80;4.03;;;10.70;99.90;;;;;;5093713;28;20626;-72
2023/09/26 03:19:52;;;;;;;4.33;3.93;;;10.70;99.90;;;;;;5092639;27;20698;-72
2023/09/26 03:22:19;;;;;;;7.03;5.00;;;10.70;99.90;;;;;;5101443;27;20623;-72
2023/09/26 03:24:47;;;;;;;6.30;4.33;;;10.70;99.90;;;;;;5102802;27;20714;-72
2023/09/26 03:27:14;;;;;;;8.07;3.67;;;10.70;99.90;;;;;;5089283;28;20615;-73
2023/09/26 03:29:40;;;;;;;5.60;5.00;;;10.70;99.90;;;;;;5095762;27;20619;-73
2023/09/26 03:32:07;;;;;;;5.53;4.70;;;10.70;99.90;;;;;;5102642;28;20622;-73
2023/09/26 03:34:34;;;;;;;4.97;4.57;;;10.70;99.90;;;;;;5103542;28;20709;-73
2023/09/26 03:37:02;;;;;;;6.73;5.47;;;10.70;99.90;;;;;;5081899;27;20612;-74
2023/09/26 03:39:30;;;;;;;4.73;4.33;;;10.70;99.90;;;;;;5095807;28;21452;-73
2023/09/26 03:41:58;;;;;;;6.50;4.50;;;10.80;99.90;;;;;;5098441;28;21031;-73
2023/09/26 03:44:25;;;;;;;5.90;5.40;;;10.80;99.90;;;;;;5102546;28;20626;-73
2023/09/26 03:46:51;;;;;;;5.97;5.00;;;10.80;99.90;;;;;;5085677;28;20759;-75
2023/09/26 03:49:18;;;;;;;11.43;6.17;;;10.90;99.90;;;;;;5092339;28;20659;-74
2023/09/26 03:51:45;;;;;;;8.90;7.40;;;10.90;99.90;;;;;;5098023;28;20627;-74
2023/09/26 03:54:12;;;;;;;8.67;7.13;;;11.00;99.90;;;;;;5106203;28;20624;-73
2023/09/26 03:56:38;;;;;;;8.67;7.30;;;11.00;99.90;;;;;;5086421;28;20617;-73
2023/09/26 03:59:07;;;;;;;6.70;6.00;;;11.10;99.90;;;;;;5090301;28;20631;-73
2023/09/26 04:01:34;;;;;;;7.90;6.40;;;11.00;99.90;;;;;;5085046;28;20628;-73
2023/09/26 04:04:01;;;;;;;9.30;7.70;;;11.10;99.90;;;;;;5106724;27;20620;-74
2023/09/26 04:06:31;;;;;;;9.53;7.70;;;11.10;99.90;;;;;;5089664;28;20665;-73
2023/09/26 04:08:58;;;;;;;10.20;8.87;;;11.10;99.90;;;;;;5078929;28;20638;-73
2023/09/26 04:11:25;;;;;;;9.93;8.53;;;11.10;99.90;;;;;;5100859;27;21104;-73
2023/09/26 04:13:52;;;;;;;8.33;7.57;;;11.10;99.90;;;;;;5097482;28;21253;-74
2023/09/26 04:16:20;;;;;;;9.03;6.90;;;11.10;99.90;;;;;;5091470;28;20617;-72
2023/09/26 04:18:47;;;;;;;16.70;9.87;;;11.10;99.90;;;;;;5104721;28;20620;-72
2023/09/26 04:21:14;;;;;;;8.27;6.90;;;11.10;99.90;;;;;;5092060;28;20805;-73
2023/09/26 04:23:40;;;;;;;9.50;7.17;;;11.10;99.90;;;;;;5100400;28;20638;-73
2023/09/26 04:26:13;;;;;;;10.80;8.10;;;11.10;99.90;;;;;;5105301;27;20664;-73
2023/09/26 04:28:40;;;;;;;9.10;7.83;;;11.10;99.90;;;;;;5093994;27;20988;-74
2023/09/26 04:31:12;;;;;;;7.23;6.53;;;11.10;99.90;;;;;;5094213;27;20627;-74
2023/09/26 04:33:40;;;;;;;7.27;6.43;;;11.10;99.90;;;;;;5101402;27;20630;-75
2023/09/26 04:36:07;;;;;;;7.33;6.73;;;11.00;99.90;;;;;;5103597;27;20647;-75
2023/09/26 04:38:34;;;;;;;8.83;6.60;;;11.00;99.90;;;;;;5091172;27;20626;-77
2023/09/26 04:41:02;;;;;;;9.98;7.60;;;11.00;99.90;;;;;;5095006;27;21876;-77
2023/09/26 04:43:29;;;;;;;8.07;7.27;;;10.90;99.90;;;;;;5096482;27;20472;-76
2023/09/26 04:45:56;;;;;;;9.47;7.30;;;10.80;99.90;;;;;;5086251;27;20653;-76
2023/09/26 04:48:23;;;;;;;9.00;6.80;;;10.80;99.90;;;;;;5098580;27;20635;-75
2023/09/26 04:50:51;;;;;;;9.83;7.50;;;10.80;99.90;;;;;;5091696;27;20635;-74
2023/09/26 04:53:18;;;;;;;14.83;6.60;;;10.80;99.90;;;;;;5079588;27;20634;-75
2023/09/26 04:55:45;;;;;;;16.00;8.13;;;10.70;99.90;;;;;;5093260;27;21179;-75
2023/09/26 04:58:12;;;;;;;18.60;10.97;;;10.70;99.90;;;;;;5092807;27;20628;-75
2023/09/26 05:00:39;;;;;;;16.50;10.10;;;10.70;99.90;;;;;;5091915;27;20617;-74
2023/09/26 05:03:06;;;;;;;18.53;10.30;;;10.60;99.90;;;;;;5089146;27;20617;-76
2023/09/26 05:05:33;;;;;;;12.03;10.13;;;10.60;99.90;;;;;;5089720;27;21405;-76
2023/09/26 05:08:01;;;;;;;10.70;7.70;;;10.60;99.90;;;;;;5101629;27;20622;-77
2023/09/26 05:10:27;;;;;;;9.37;7.60;;;10.60;99.90;;;;;;5099362;27;21243;-74
2023/09/26 05:12:54;;;;;;;12.87;8.33;;;10.60;99.90;;;;;;5091528;27;20636;-74
2023/09/26 05:15:21;;;;;;;9.00;6.20;;;10.60;99.90;;;;;;5095260;27;20631;-77
2023/09/26 05:17:49;;;;;;;8.37;7.40;;;10.60;99.90;;;;;;5083877;27;20646;-79
2023/09/26 05:20:17;;;;;;;7.63;6.00;;;10.50;99.90;;;;;;5101578;27;20740;-76
2023/09/26 05:22:46;;;;;;;7.47;6.20;;;10.50;99.90;;;;;;5101335;27;21251;-85
2023/09/26 05:25:15;;;;;;;7.43;6.70;;;10.50;99.90;;;;;;5089819;27;22212;-85
2023/09/26 05:27:43;;;;;;;5.93;5.23;;;10.50;99.90;;;;;;5102656;27;20662;-76
2023/09/26 05:30:11;;;;;;;6.83;5.33;;;10.60;99.90;;;;;;5099214;27;20628;-78
2023/09/26 05:32:38;;;;;;;6.00;5.40;;;10.60;99.90;;;;;;5096199;27;20647;-75
2023/09/26 05:35:07;;;;;;;6.63;5.67;;;10.60;99.90;;;;;;5095212;27;20620;-75
2023/09/26 05:37:33;;;;;;;5.90;5.33;;;10.60;99.90;;;;;;5091536;27;20628;-79
2023/09/26 05:40:00;;;;;;;7.43;5.30;;;10.60;99.90;;;;;;5099235;27;20659;-74
2023/09/26 05:42:30;;;;;;;7.10;5.47;;;10.70;99.90;;;;;;5077328;27;20720;-73
2023/09/26 05:44:57;;;;;;;6.00;5.37;;;10.60;99.90;;;;;;5095800;27;20639;-73
2023/09/26 05:47:33;;;;;;;7.00;5.50;;;10.60;99.90;;;;;;5096520;27;21208;-75
2023/09/26 05:50:00;;;;;;;6.20;4.80;;;10.60;99.90;;;;;;5100073;27;21094;-73
2023/09/26 05:52:27;;;;;;;6.40;5.80;;;10.60;99.90;;;;;;5101085;27;21018;-73
2023/09/26 05:54:54;;;;;;;7.80;5.90;;;10.50;99.90;;;;;;5081487;28;20627;-73
2023/09/26 05:57:20;;;;;;;7.67;6.70;;;10.50;99.90;;;;;;5095833;27;20622;-73
2023/09/26 05:59:48;;;;;;;6.30;5.67;;;10.60;99.90;;;;;;5097807;27;21234;-73
2023/09/26 06:02:17;;;;;;;5.43;4.90;;;10.60;99.90;;;;;;5093548;27;20651;-73
2023/09/26 06:04:45;;;;;;;5.57;4.90;;;10.80;99.90;;;;;;5097663;27;20625;-76
2023/09/26 06:07:13;;;;;;;6.40;5.70;;;10.90;99.90;;;;;;5082462;28;20664;-76
2023/09/26 06:09:40;;;;;;;7.00;5.30;;;11.00;99.90;;;;;;5096754;27;21705;-76
2023/09/26 06:12:07;;;;;;;6.83;5.90;;;11.00;99.90;;;;;;5098849;27;20633;-76
2023/09/26 06:14:34;;;;;;;6.40;5.67;;;11.00;99.90;;;;;;5084107;27;21421;-77
2023/09/26 06:17:03;;;;;;;7.10;4.40;;;11.00;99.90;;;;;;5105044;27;20623;-77
2023/09/26 06:19:30;;;;;;;6.53;3.90;;;11.10;99.90;;;;;;5081241;27;20635;-76
2023/09/26 06:21:57;;;;;;;6.70;5.30;;;11.10;99.90;;;;;;5096208;27;20631;-73
2023/09/26 06:24:24;;;;;;;7.33;6.50;;;11.30;99.90;;;;;;5096826;27;20640;-76
2023/09/26 06:26:51;;;;;;;5.37;4.83;;;11.60;99.90;;;;;;5101067;27;20657;-76
2023/09/26 06:29:18;;;;;;;5.40;4.73;;;11.70;99.90;;;;;;5100559;27;21403;-79
2023/09/26 06:31:45;;;;;;;5.53;4.47;;;11.60;99.90;;;;;;5081149;28;21452;-77
2023/09/26 06:34:14;;;;;;;7.70;4.70;;;11.70;99.90;;;;;;5095586;27;20640;-76
2023/09/26 06:36:42;;;;;;;5.60;4.13;;;11.70;99.90;;;;;;5097550;27;21180;-75
2023/09/26 06:39:11;;;;;;;4.77;4.37;;;11.80;99.90;;;;;;5086432;27;21279;-75
2023/09/26 06:41:37;;;;;;;5.50;4.97;;;11.90;99.90;;;;;;5099359;27;21454;-74
2023/09/26 06:44:05;;;;;;;4.63;4.10;;;12.00;99.90;;;;;;5081674;28;20632;-74
2023/09/26 06:46:32;;;;;;;6.03;5.43;;;12.10;99.90;;;;;;5096087;27;20674;-74
2023/09/26 06:48:58;;;;;;;5.33;4.83;;;12.30;99.90;;;;;;5098085;27;21175;-74
2023/09/26 06:51:26;;;;;;;4.87;4.37;;;12.30;99.90;;;;;;5097949;27;21652;-73
2023/09/26 06:53:53;;;;;;;5.03;4.53;;;12.30;99.90;;;;;;5087714;27;20718;-73
2023/09/26 06:56:20;;;;;;;5.30;4.33;;;12.50;99.90;;;;;;5090923;27;20630;-75
2023/09/26 06:58:47;;;;;;;5.30;4.80;;;12.60;99.90;;;;;;5095139;27;20628;-75
2023/09/26 07:01:15;;;;;;;5.97;4.57;;;12.80;99.90;;;;;;5095664;27;20631;-76
2023/09/26 07:03:42;;;;;;;4.43;4.03;;;12.80;99.90;;;;;;5101579;27;20629;-76
2023/09/26 07:06:10;;;;;;;4.43;4.03;;;12.90;99.90;;;;;;5104490;27;20675;-76
2023/09/26 07:08:39;;;;;;;4.77;4.00;;;13.10;99.90;;;;;;5079776;28;20612;-77
2023/09/26 07:11:06;;;;;;;4.60;3.97;;;13.20;99.90;;;;;;5095718;27;21301;-76
2023/09/26 07:13:34;;;;;;;4.90;4.50;;;13.40;99.90;;;;;;5097135;27;21040;-76
2023/09/26 07:16:03;;;;;;;4.80;4.40;;;13.60;99.90;;;;;;5094505;27;20627;-77
2023/09/26 07:18:31;;;;;;;4.70;4.23;;;13.60;99.90;;;;;;5102730;27;20615;-77
2023/09/26 07:21:00;;;;;;;4.37;4.03;;;13.80;99.90;;;;;;5100728;27;20634;-76
2023/09/26 07:23:26;;;;;;;4.27;3.90;;;13.80;99.90;;;;;;5090631;27;20617;-77
2023/09/26 07:26:06;;;;;;;4.60;4.20;;;14.00;99.90;;;;;;5090595;27;20630;-77
2023/09/26 07:28:33;;;;;;;5.13;4.63;;;14.10;99.90;;;;;;5085114;28;20619;-77
2023/09/26 07:31:00;;;;;;;3.60;3.30;;;14.10;99.90;;;;;;5106700;27;20628;-76
2023/09/26 07:33:28;;;;;;;5.47;4.83;;;14.20;99.90;;;;;;5079306;28;20629;-77
2023/09/26 07:35:55;;;;;;;4.90;4.50;;;14.30;99.90;;;;;;5093730;28;21340;-78
2023/09/26 07:38:22;;;;;;;5.40;4.90;;;14.40;99.90;;;;;;5096764;28;20627;-76
2023/09/26 07:40:49;;;;;;;6.63;4.43;;;14.60;99.90;;;;;;5092452;28;20626;-76
2023/09/26 07:43:17;;;;;;;5.50;4.77;;;14.80;99.90;;;;;;5095680;28;20623;-75
2023/09/26 07:45:44;;;;;;;6.90;4.87;;;14.90;99.90;;;;;;5091149;28;20633;-74
2023/09/26 07:48:11;;;;;;;5.57;5.07;;;15.00;99.90;;;;;;5092737;28;20659;-74
2023/09/26 07:50:38;;;;;;;6.47;4.70;;;15.00;99.90;;;;;;5095828;28;20763;-75
2023/09/26 07:53:04;;;;;;;5.60;5.10;;;15.10;99.90;;;;;;5095478;28;20712;-74
2023/09/26 07:55:31;;;;;;;5.50;4.70;;;15.30;99.90;;;;;;5092639;28;20640;-75
2023/09/26 07:57:58;;;;;;;5.10;4.70;;;15.40;99.90;;;;;;5081358;28;20631;-76
2023/09/26 08:00:27;;;;;;;4.93;4.53;;;15.30;99.90;;;;;;5095285;28;20638;-76
2023/09/26 08:02:53;;;;;;;5.20;4.70;;;15.30;99.90;;;;;;5099834;27;21278;-75
2023/09/26 08:05:20;;;;;;;6.13;4.57;;;15.30;99.90;;;;;;5105488;27;20640;-76
2023/09/26 08:07:48;;;;;;;5.87;4.70;;;15.40;99.90;;;;;;5100369;27;20682;-75
2023/09/26 08:10:15;;;;;;;5.20;4.70;;;15.60;99.90;;;;;;5081411;28;20638;-76
2023/09/26 08:12:42;;;;;;;5.10;4.60;;;15.80;99.90;;;;;;5097578;27;20644;-77
2023/09/26 08:15:09;;;;;;;4.73;4.33;;;15.80;99.20;;;;;;5100408;27;20963;-75
2023/09/26 08:17:37;;;;;;;5.27;4.20;;;15.80;99.60;;;;;;5105343;27;20722;-75
2023/09/26 08:20:05;;;;;;;7.00;5.20;;;16.00;99.60;;;;;;5108436;27;20615;-75
2023/09/26 08:22:32;;;;;;;5.20;4.70;;;16.10;99.40;;;;;;5082806;28;21405;-76
2023/09/26 08:24:59;;;;;;;5.90;4.63;;;16.30;98.90;;;;;;5095977;27;20625;-76
2023/09/26 08:27:26;;;;;;;4.30;4.00;;;16.40;98.90;;;;;;5100347;27;20666;-77
2023/09/26 08:29:53;;;;;;;4.43;4.03;;;16.50;98.40;;;;;;5100897;27;20628;-76
2023/09/26 08:32:19;;;;;;;4.93;4.47;;;16.60;98.60;;;;;;5102065;27;20619;-75
2023/09/26 08:34:47;;;;;;;5.13;4.63;;;16.60;99.00;;;;;;5083202;28;21208;-76
2023/09/26 08:37:14;;;;;;;4.67;4.27;;;16.80;98.70;;;;;;5096811;27;20613;-76
2023/09/26 08:39:43;;;;;;;8.10;5.50;;;16.90;99.10;;;;;;5105029;27;20620;-75
2023/09/26 08:42:15;;;;;;;6.73;6.03;;;17.00;99.00;;;;;;5104902;27;20987;-75
2023/09/26 08:44:42;;;;;;;5.83;4.80;;;17.20;98.70;;;;;;5108062;27;20623;-76
2023/09/26 08:47:09;;;;;;;5.47;4.97;;;17.30;98.20;;;;;;5083736;27;20664;-76
2023/09/26 08:49:41;;;;;;;5.33;4.83;;;17.50;98.00;;;;;;5099707;27;20871;-75
2023/09/26 08:52:09;;;;;;;7.20;5.80;;;17.60;97.90;;;;;;5099976;27;20628;-76
2023/09/26 08:54:36;;;;;;;6.03;4.80;;;17.90;96.90;;;;;;5100304;27;20671;-76
2023/09/26 08:57:04;;;;;;;7.00;6.33;;;18.00;96.60;;;;;;5098940;27;20628;-76
2023/09/26 08:59:32;;;;;;;6.23;5.30;;;18.10;96.20;;;;;;5099218;27;20682;-76
2023/09/26 09:01:59;;;;;;;7.23;5.50;;;18.00;96.40;;;;;;5093818;27;20624;-76
2023/09/26 09:04:26;;;;;;;4.80;4.33;;;18.20;96.30;;;;;;5102770;27;21216;-76
2023/09/26 09:07:02;;;;;;;5.50;5.00;;;18.30;95.90;;;;;;5094890;27;20631;-77
2023/09/26 09:09:31;;;;;;;5.07;4.57;;;18.30;95.70;;;;;;5101343;27;20661;-76
2023/09/26 09:11:57;;;;;;;5.10;4.60;;;18.20;96.30;;;;;;5078998;28;20632;-77
2023/09/26 09:14:33;;;;;;;4.60;4.10;;;18.40;96.50;;;;;;5091527;27;20638;-77
2023/09/26 09:17:00;;;;;;;5.53;4.07;;;18.40;96.30;;;;;;5098031;27;20626;-76
2023/09/26 09:19:45;;;;;;;6.07;4.80;;;18.50;95.90;;;;;;5102827;27;20629;-76
2023/09/26 09:22:16;;;;;;;5.67;5.00;;;18.60;95.60;;;;;;5085799;27;21373;-76
2023/09/26 09:24:44;;;;;;;6.17;5.03;;;18.60;95.80;;;;;;5080238;28;21204;-76
2023/09/26 09:27:11;;;;;;;6.13;5.53;;;18.70;96.10;;;;;;5084410;27;20659;-76
2023/09/26 09:29:40;;;;;;;5.93;5.30;;;18.70;96.00;;;;;;5108661;27;20628;-76
2023/09/26 09:32:07;;;;;;;5.00;4.50;;;18.90;95.20;;;;;;5095484;27;20740;-75
2023/09/26 09:34:35;;;;;;;5.30;4.80;;;19.10;95.40;;;;;;5075004;27;20619;-76
2023/09/26 09:37:02;;;;;;;5.67;5.07;;;19.00;95.50;;;;;;5097866;27;20640;-76
2023/09/26 09:39:29;;;;;;;4.63;4.23;;;19.10;94.90;;;;;;5094286;27;20672;-76
2023/09/26 09:41:58;;;;;;;8.03;4.20;;;19.20;94.80;;;;;;5101136;27;20624;-76
2023/09/26 09:44:26;;;;;;;11.87;4.30;;;19.20;94.90;;;;;;5103112;27;20660;-76
2023/09/26 09:46:59;;;;;;;5.27;4.77;;;19.10;94.90;;;;;;5096136;27;20633;-76
2023/09/26 09:49:32;;;;;;;4.57;4.17;;;19.20;94.10;;;;;;5086963;27;20708;-75
2023/09/26 09:52:04;;;;;;;5.40;4.97;;;19.30;95.00;;;;;;5099756;27;20696;-75
2023/09/26 09:54:34;;;;;;;4.43;4.03;;;19.30;93.90;;;;;;5099302;27;20630;-76
2023/09/26 09:57:08;;;;;;;4.13;3.73;;;19.40;94.50;;;;;;5101261;27;21196;-75
2023/09/26 09:59:37;;;;;;;4.30;3.90;;;19.50;94.00;;;;;;5099417;27;21079;-75
2023/09/26 10:02:06;;;;;;;4.50;4.17;;;19.50;93.70;;;;;;5081222;28;20730;-78
2023/09/26 10:04:34;;;;;;;5.47;4.33;;;19.50;93.00;;;;;;5085815;27;20637;-76
2023/09/26 10:07:01;;;;;;;4.00;3.50;;;19.70;93.40;;;;;;5095107;27;20979;-76
2023/09/26 10:09:31;;;;;;;9.50;4.03;;;19.70;93.10;;;;;;5093971;27;20771;-73
2023/09/26 10:12:00;;;;;;;5.00;4.20;;;19.50;93.40;;;;;;5093607;27;20634;-74
2023/09/26 10:14:28;;;;;;;3.40;3.10;;;19.70;93.10;;;;;;5088559;27;20632;-74
2023/09/26 10:16:57;;;;;;;5.70;3.53;;;19.80;92.20;;;;;;5098921;27;20712;-74
2023/09/26 10:19:25;;;;;;;3.30;3.00;;;19.80;92.30;;;;;;5099338;27;20615;-74
2023/09/26 10:21:53;;;;;;;3.33;3.03;;;19.80;92.10;;;;;;5102839;27;21178;-74
2023/09/26 10:24:29;;;;;;;4.00;3.43;;;19.80;92.00;;;;;;5092127;27;21108;-74
2023/09/26 10:26:59;;;;;;;3.37;3.07;;;19.90;92.60;;;;;;5092640;27;20719;-74
2023/09/26 10:29:28;;;;;;;3.73;3.43;;;19.90;92.90;;;;;;5100303;27;20654;-75
2023/09/26 10:31:57;;;;;;;4.00;3.70;;;20.00;92.20;;;;;;5098937;27;20621;-74
2023/09/26 10:34:27;;;;;;;5.80;3.53;;;20.00;93.10;;;;;;5095196;27;20677;-74
2023/09/26 10:36:54;;;;;;;3.53;2.90;;;19.80;91.80;;;;;;5096538;27;20612;-74
2023/09/26 10:39:33;;;;;;;4.17;3.73;;;19.60;92.70;;;;;;5082891;28;21200;-74
2023/09/26 10:42:02;;;;;;;4.70;3.90;;;19.50;92.80;;;;;;5098224;27;20619;-74
2023/09/26 10:44:30;;;;;;;5.10;3.70;;;19.60;92.80;;;;;;5096668;27;20663;-74
2023/09/26 10:46:57;;;;;;;2.70;2.50;;;19.80;93.20;;;;;;5090063;27;20725;-73
2023/09/26 10:49:25;;;;;;;6.10;3.03;;;19.90;92.40;;;;;;5105531;27;20677;-72
2023/09/26 10:51:52;;;;;;;2.67;2.50;;;20.10;92.70;;;;;;5096909;27;20627;-72
2023/09/26 10:54:19;;;;;;;3.87;3.10;;;20.10;91.70;;;;;;5097673;27;20623;-72
2023/09/26 10:56:48;;;;;;;3.27;2.97;;;20.30;92.00;;;;;;5097191;27;20740;-73
2023/09/26 10:59:17;;;;;;;2.80;2.53;;;20.40;91.00;;;;;;5093375;27;20983;-73
2023/09/26 11:01:46;;;;;;;3.20;2.50;;;20.30;91.30;;;;;;5086501;27;20620;-73
2023/09/26 11:04:13;;;;;;;10.17;3.13;;;20.30;90.70;;;;;;5093233;27;20635;-73
2023/09/26 11:06:41;;;;;;;2.60;2.40;;;20.50;90.60;;;;;;5103371;27;20627;-73
2023/09/26 11:09:08;;;;;;;2.60;2.40;;;20.50;90.20;;;;;;5096189;27;20679;-73
2023/09/26 11:11:35;;;;;;;2.40;2.20;;;20.50;90.30;;;;;;5099748;27;21219;-73
2023/09/26 11:14:02;;;;;;;2.63;2.47;;;20.50;88.40;;;;;;5092725;27;20634;-73
2023/09/26 11:16:30;;;;;;;3.20;2.90;;;20.50;90.00;;;;;;5082970;27;21189;-75
2023/09/26 11:18:58;;;;;;;2.73;2.50;;;20.70;90.10;;;;;;5099121;27;21285;-72
2023/09/26 11:21:25;;;;;;;2.70;2.50;;;20.60;90.70;;;;;;5094996;27;20766;-72
2023/09/26 11:23:52;;;;;;;3.40;2.60;;;20.60;90.40;;;;;;5096903;27;21471;-71
2023/09/26 11:26:19;;;;;;;2.60;2.40;;;20.60;90.00;;;;;;5102921;27;20979;-73
2023/09/26 11:28:45;;;;;;;3.30;2.17;;;20.70;90.00;;;;;;5086268;28;20651;-74
2023/09/26 11:31:15;;;;;;;2.37;2.17;;;20.60;90.60;;;;;;5097097;28;20632;-74
2023/09/26 11:33:42;;;;;;;1.90;1.80;;;20.60;90.20;;;;;;5091899;27;20623;-74
2023/09/26 11:36:11;;;;;;;2.10;1.90;;;20.60;88.90;;;;;;5098491;28;21066;-74
2023/09/26 11:38:47;;;;;;;2.73;2.53;;;20.50;89.20;;;;;;5107485;27;20626;-74
2023/09/26 11:41:14;;;;;;;2.70;2.33;;;20.50;88.30;;;;;;5104714;27;21677;-73
2023/09/26 11:43:41;;;;;;;3.00;2.80;;;20.60;88.20;;;;;;5104519;27;20619;-74
2023/09/26 11:46:09;;;;;;;3.00;2.70;;;20.60;89.60;;;;;;5103383;27;20615;-74
2023/09/26 11:48:36;;;;;;;2.77;2.47;;;20.70;89.90;;;;;;5109588;27;20990;-74
2023/09/26 11:51:03;;;;;;;2.40;2.20;;;20.90;89.90;;;;;;5100946;27;21233;-74
2023/09/26 11:53:31;;;;;;;2.60;2.40;;;20.90;89.60;;;;;;5089423;27;20976;-73
2023/09/26 11:55:59;;;;;;;3.07;2.87;;;20.80;89.40;;;;;;5104248;27;20616;-73
2023/09/26 11:58:25;;;;;;;2.17;2.00;;;20.90;88.80;;;;;;5104919;27;20669;-74
2023/09/26 12:00:53;;;;;;;2.10;2.00;;;20.90;90.10;;;;;;5103238;27;20624;-74
2023/09/26 12:03:20;;;;;;;2.90;1.80;;;21.10;90.00;;;;;;5095418;27;20640;-74
2023/09/26 12:05:47;;;;;;;2.50;2.13;;;21.10;88.70;;;;;;5090557;27;21801;-75
2023/09/26 12:08:13;;;;;;;2.00;1.83;;;21.20;87.30;;;;;;5104287;27;20660;-82
2023/09/26 12:10:43;;;;;;;2.27;2.10;;;21.20;89.30;;;;;;5106318;27;20762;-80
2023/09/26 12:13:10;;;;;;;2.17;2.00;;;21.20;89.60;;;;;;5108470;27;20648;-79
2023/09/26 12:15:38;;;;;;;2.43;2.23;;;21.30;86.20;;;;;;5112170;27;20623;-79
2023/09/26 12:18:05;;;;;;;2.53;2.33;;;21.30;87.50;;;;;;5102828;27;20656;-79
2023/09/26 12:20:32;;;;;;;4.63;2.33;;;21.30;86.20;;;;;;5093524;27;21450;-82
2023/09/26 12:22:59;;;;;;;2.57;2.37;;;21.40;86.30;;;;;;5099887;27;20627;-80
2023/09/26 12:25:27;;;;;;;2.37;2.17;;;21.50;86.20;;;;;;5096034;27;20633;-80
2023/09/26 12:27:56;;;;;;;2.57;2.33;;;21.40;87.50;;;;;;5092037;27;20642;-79
2023/09/26 12:30:23;;;;;;;2.40;2.03;;;21.40;86.90;;;;;;5102564;27;20634;-80
2023/09/26 12:32:50;;;;;;;2.87;2.40;;;21.50;85.90;;;;;;5097802;27;20973;-79
2023/09/26 12:35:17;;;;;;;2.97;1.70;;;21.50;85.50;;;;;;5095679;27;21203;-80
2023/09/26 12:37:46;;;;;;;2.00;1.80;;;21.50;85.60;;;;;;5093272;27;21205;-79
2023/09/26 12:40:13;;;;;;;2.90;2.70;;;21.50;84.50;;;;;;5102995;27;20625;-80
2023/09/26 12:42:41;;;;;;;2.30;2.10;;;21.60;85.20;;;;;;5099488;27;20637;-82
2023/09/26 12:45:10;;;;;;;2.10;1.90;;;21.60;84.10;;;;;;5107647;27;20617;-79
2023/09/26 12:47:37;;;;;;;2.07;1.97;;;21.50;84.50;;;;;;5108206;27;20623;-78